La Rue, Ohio
Current Conditions -  °F | °C
As of 6:53 PM on Wednesday 22 Oct 2014 (Local Time) from KMNN Reporting Station
Overcast Overcast  
Wind Chill: 45°   Ceiling: 3000
Heat Index: 49°   Visibility: 10mi
Dew Point: 41°   Wind: 8mph
Humidity: 74%   Direction: 340°NNW
Pressure: 30.26"   Gusts: NA
Location:  40.58°N, 83.38°W
Report Text: KMNN 222253Z AUTO 34007KT 10SM OVC030 09/05 A3026 RMK AO2 SLP253 T00940050 TSNO
Loading
Personal Weather Stations






























Interactive Weather Map
Tropical Storm Tracking
New forecast layout! Learn more

10-Day Weather Forecast

Advertisements
Track Severe Weather on mobile